Los Angeles, California
Traffic Map
Current Weather Conditions
Los Angeles, California
Scattered Clouds
Scattered Clouds
63°
Feels Like: 63°
Wind Chill: 63° Ceiling: Unl
Heat Index: 63° Visibility: 10mi
Dew Point: 48° Wind: 0mph
Humidity: 58% Direction: ° ()
Pressure: 29.97in Gusts: 0mph
Raw Report DataKCQT 211023Z AUTO 00000KT 10SM SCT027 17/09 A2997 RMK AO2 T01720089
Traffic Incident Summary
Active as of:
Severity:
Category:
InformationThere was an issue retrieving the traffic information for this location. Please try a different location or try again shortly.
Advertisements